Time;durP1;ratioP1;P1;durP2;ratioP2;P2;SDS_P1;SDS_P2;PMS_P1;PMS_P2;Temp;Humidity;BMP_temperature;BMP_pressure;BME280_temperature;BME280_humidity;BME280_pressure;Samples;Min_cycle;Max_cycle;Signal;HPM_P1;HPM_P2
2023/09/22 00:00:14;;;;;;;1.43;1.00;;;15.50;89.20;;;;;;4998791;28;20665;-67
2023/09/22 00:02:42;;;;;;;2.60;0.80;;;15.40;88.90;;;;;;4997212;28;20429;-68
2023/09/22 00:05:09;;;;;;;1.50;0.80;;;15.30;88.90;;;;;;4991839;28;21022;-68
2023/09/22 00:07:35;;;;;;;1.60;0.90;;;15.30;89.00;;;;;;4995366;28;20836;-68
2023/09/22 00:10:01;;;;;;;2.17;1.20;;;15.30;89.00;;;;;;4988466;28;20436;-68
2023/09/22 00:12:29;;;;;;;1.97;1.00;;;15.20;88.90;;;;;;4998505;28;20182;-69
2023/09/22 00:14:54;;;;;;;3.23;1.00;;;15.20;88.70;;;;;;4985701;28;20769;-68
2023/09/22 00:17:20;;;;;;;2.80;1.17;;;15.10;88.40;;;;;;4992268;28;20453;-69
2023/09/22 00:19:46;;;;;;;1.87;1.03;;;15.10;88.40;;;;;;4988920;28;20453;-69
2023/09/22 00:22:11;;;;;;;3.20;1.20;;;15.10;88.30;;;;;;5000096;28;20183;-68
2023/09/22 00:24:37;;;;;;;2.23;1.20;;;15.10;88.00;;;;;;4987674;28;20680;-69
2023/09/22 00:27:02;;;;;;;2.33;1.00;;;15.10;87.70;;;;;;4994022;28;20178;-68
2023/09/22 00:29:28;;;;;;;5.00;1.20;;;15.00;87.10;;;;;;4993825;28;20270;-67
2023/09/22 00:31:53;;;;;;;1.90;1.00;;;15.00;87.00;;;;;;4993447;28;20180;-68
2023/09/22 00:34:19;;;;;;;1.40;0.80;;;15.00;86.90;;;;;;4995753;28;20213;-68
2023/09/22 00:36:45;;;;;;;1.87;0.97;;;15.10;87.00;;;;;;4988145;28;21051;-68
2023/09/22 00:39:10;;;;;;;1.90;1.03;;;15.10;86.30;;;;;;4989322;28;20210;-68
2023/09/22 00:41:36;;;;;;;1.93;1.10;;;15.10;86.60;;;;;;4994152;28;20196;-68
2023/09/22 00:44:01;;;;;;;1.90;1.17;;;15.10;86.00;;;;;;4986641;28;20271;-68
2023/09/22 00:46:27;;;;;;;3.00;1.30;;;15.00;86.50;;;;;;4987848;28;20726;-68
2023/09/22 00:48:55;;;;;;;1.83;1.00;;;15.00;86.50;;;;;;4992355;28;20267;-67
2023/09/22 00:51:21;;;;;;;1.43;0.90;;;15.00;86.60;;;;;;4989895;28;20427;-68
2023/09/22 00:53:48;;;;;;;2.47;1.40;;;15.00;86.20;;;;;;4994439;28;20497;-68
2023/09/22 00:56:19;;;;;;;2.70;1.20;;;14.90;86.20;;;;;;4993456;28;20212;-68
2023/09/22 00:58:45;;;;;;;1.83;1.10;;;14.90;86.20;;;;;;4993173;28;20449;-69
2023/09/22 01:01:11;;;;;;;1.83;1.20;;;14.90;86.00;;;;;;4999697;28;20423;-67
2023/09/22 01:03:36;;;;;;;2.00;1.00;;;14.90;86.00;;;;;;4998975;28;20419;-68
2023/09/22 01:06:03;;;;;;;2.10;1.10;;;14.90;85.90;;;;;;4981653;28;20260;-68
2023/09/22 01:08:28;;;;;;;1.80;1.10;;;14.90;85.60;;;;;;4998550;28;20276;-67
2023/09/22 01:10:54;;;;;;;3.07;1.20;;;14.80;85.20;;;;;;4989985;28;20542;-68
2023/09/22 01:13:20;;;;;;;1.87;1.00;;;14.80;85.00;;;;;;4995395;28;20227;-68
2023/09/22 01:15:46;;;;;;;1.63;1.00;;;14.80;84.90;;;;;;4982855;28;20490;-68
2023/09/22 01:18:13;;;;;;;3.37;1.30;;;14.70;85.00;;;;;;4992281;28;20192;-68
2023/09/22 01:20:42;;;;;;;2.13;1.33;;;14.70;84.70;;;;;;4988548;28;20741;-68
2023/09/22 01:23:08;;;;;;;2.40;1.27;;;14.70;85.00;;;;;;4998961;28;20431;-68
2023/09/22 01:25:33;;;;;;;2.60;1.27;;;14.70;84.90;;;;;;4989742;28;21013;-68
2023/09/22 01:27:59;;;;;;;1.63;0.90;;;14.70;85.20;;;;;;4988496;28;20418;-68
2023/09/22 01:30:25;;;;;;;2.10;1.20;;;14.80;85.20;;;;;;4987777;28;20213;-69
2023/09/22 01:32:50;;;;;;;2.30;1.20;;;14.80;85.00;;;;;;4996508;28;20784;-68
2023/09/22 01:35:17;;;;;;;3.30;1.00;;;14.80;84.40;;;;;;4992468;28;20234;-69
2023/09/22 01:38:00;;;;;;;3.57;1.40;;;14.80;84.60;;;;;;4996744;28;21215;-69
2023/09/22 01:40:25;;;;;;;3.10;1.40;;;14.80;84.60;;;;;;4995772;28;20188;-66
2023/09/22 01:42:51;;;;;;;4.43;1.30;;;14.70;84.70;;;;;;4999024;28;20953;-69
2023/09/22 01:45:17;;;;;;;4.70;1.20;;;14.70;84.90;;;;;;4990765;28;20223;-69
2023/09/22 01:47:42;;;;;;;1.73;1.00;;;14.60;84.90;;;;;;4990701;28;20528;-68
2023/09/22 01:50:08;;;;;;;2.50;1.20;;;14.60;84.90;;;;;;4990191;28;20245;-69
2023/09/22 01:52:35;;;;;;;2.30;1.40;;;14.70;85.00;;;;;;4987880;28;20182;-69
2023/09/22 01:55:01;;;;;;;2.20;0.93;;;14.70;85.00;;;;;;4988673;28;20460;-69
2023/09/22 01:57:27;;;;;;;2.50;1.23;;;14.60;85.20;;;;;;4989268;28;20914;-69
2023/09/22 01:59:52;;;;;;;1.60;1.03;;;14.70;85.00;;;;;;4995926;28;20205;-69
2023/09/22 02:02:18;;;;;;;5.10;1.20;;;14.70;84.90;;;;;;4992685;28;20187;-69
2023/09/22 02:04:43;;;;;;;3.13;1.20;;;14.70;85.30;;;;;;4994951;28;20185;-69
2023/09/22 02:07:10;;;;;;;2.47;1.00;;;14.70;85.30;;;;;;4988644;28;21398;-69
2023/09/22 02:09:36;;;;;;;2.80;1.60;;;14.80;85.20;;;;;;4993025;28;20184;-69
2023/09/22 02:12:02;;;;;;;2.10;1.30;;;14.80;84.70;;;;;;4988047;28;21340;-69
2023/09/22 02:14:27;;;;;;;3.63;1.27;;;14.80;84.70;;;;;;4990696;28;20287;-69
2023/09/22 02:16:53;;;;;;;1.93;1.30;;;14.80;84.70;;;;;;4990676;28;20712;-69
2023/09/22 02:19:18;;;;;;;3.33;1.30;;;14.80;84.60;;;;;;4993710;28;20852;-68
2023/09/22 02:21:45;;;;;;;2.50;1.27;;;14.80;84.70;;;;;;4992127;28;20558;-68
2023/09/22 02:24:11;;;;;;;1.57;0.90;;;14.70;84.90;;;;;;4996092;28;20183;-68
2023/09/22 02:26:36;;;;;;;1.90;1.10;;;14.70;85.20;;;;;;4991471;28;20493;-68
2023/09/22 02:29:02;;;;;;;1.67;0.93;;;14.70;85.30;;;;;;5003418;28;20202;-68
2023/09/22 02:31:28;;;;;;;2.03;0.80;;;14.70;85.20;;;;;;4991161;28;20196;-68
2023/09/22 02:33:54;;;;;;;2.07;1.10;;;14.70;84.70;;;;;;4998110;28;20238;-68
2023/09/22 02:36:19;;;;;;;2.20;1.03;;;14.70;84.10;;;;;;4994845;28;20206;-69
2023/09/22 02:38:45;;;;;;;2.50;1.30;;;14.80;84.00;;;;;;4997220;28;20582;-69
2023/09/22 02:41:14;;;;;;;3.17;1.30;;;14.90;84.00;;;;;;4996692;28;20187;-69
2023/09/22 02:43:39;;;;;;;1.80;1.30;;;14.90;84.10;;;;;;4998194;28;20199;-69
2023/09/22 02:46:05;;;;;;;2.17;1.20;;;15.00;84.40;;;;;;4996888;28;20632;-70
2023/09/22 02:48:30;;;;;;;2.20;1.17;;;15.10;85.00;;;;;;4991743;28;20194;-68
2023/09/22 02:50:56;;;;;;;1.87;1.07;;;15.10;85.20;;;;;;4994227;28;20180;-69
2023/09/22 02:53:22;;;;;;;1.90;1.20;;;15.20;84.90;;;;;;4997269;28;20190;-69
2023/09/22 02:55:47;;;;;;;1.70;0.93;;;15.20;84.30;;;;;;4991053;28;20204;-69
2023/09/22 02:58:14;;;;;;;2.23;1.40;;;15.20;83.80;;;;;;4992050;28;20216;-69
2023/09/22 03:00:43;;;;;;;3.30;1.37;;;15.20;83.40;;;;;;4999444;28;20205;-68
2023/09/22 03:03:10;;;;;;;2.47;1.27;;;15.20;83.30;;;;;;4983111;28;21314;-69
2023/09/22 03:05:36;;;;;;;5.80;0.93;;;15.10;83.60;;;;;;4981006;28;20877;-68
2023/09/22 03:08:04;;;;;;;4.37;0.97;;;15.10;84.00;;;;;;4989790;28;20504;-69
2023/09/22 03:10:31;;;;;;;4.83;1.57;;;15.10;84.60;;;;;;4992168;28;20429;-69
2023/09/22 03:12:56;;;;;;;2.03;1.10;;;15.10;84.70;;;;;;4991400;28;20501;-69
2023/09/22 03:15:22;;;;;;;1.90;1.17;;;15.20;85.00;;;;;;4989405;28;20493;-69
2023/09/22 03:17:48;;;;;;;2.60;1.43;;;15.20;85.30;;;;;;4990730;28;20581;-69
2023/09/22 03:20:15;;;;;;;3.30;1.50;;;15.20;85.60;;;;;;4999414;28;20456;-69
2023/09/22 03:22:41;;;;;;;3.53;1.10;;;15.20;85.50;;;;;;4990200;28;20187;-68
2023/09/22 03:25:08;;;;;;;2.80;1.20;;;15.20;85.50;;;;;;4989712;28;20957;-69
2023/09/22 03:27:34;;;;;;;7.90;1.67;;;15.20;85.30;;;;;;4990539;28;20190;-68
2023/09/22 03:30:08;;;;;;;3.37;1.10;;;15.10;85.30;;;;;;5001744;28;20421;-68
2023/09/22 03:32:35;;;;;;;4.47;1.20;;;15.20;84.90;;;;;;4990993;28;20838;-68
2023/09/22 03:35:05;;;;;;;3.27;1.20;;;15.20;84.90;;;;;;4997488;28;21373;-68
2023/09/22 03:37:32;;;;;;;2.53;1.20;;;15.20;84.70;;;;;;4993647;28;20461;-68
2023/09/22 03:39:58;;;;;;;2.53;1.30;;;15.10;85.00;;;;;;4998644;28;20434;-68
2023/09/22 03:42:27;;;;;;;2.20;1.20;;;15.10;85.20;;;;;;5000187;28;20440;-69
2023/09/22 03:44:52;;;;;;;2.20;1.33;;;15.00;85.20;;;;;;4995426;28;20417;-69
2023/09/22 03:47:18;;;;;;;2.43;1.30;;;14.90;85.30;;;;;;4994353;28;20420;-69
2023/09/22 03:49:43;;;;;;;3.73;1.30;;;14.90;85.30;;;;;;4991095;28;20181;-67
2023/09/22 03:52:09;;;;;;;3.63;1.43;;;15.00;85.00;;;;;;4990270;28;20173;-68
2023/09/22 03:54:36;;;;;;;3.50;1.40;;;15.10;84.90;;;;;;4988009;28;20199;-69
2023/09/22 03:57:01;;;;;;;1.90;1.40;;;15.10;84.90;;;;;;4990361;28;20516;-69
2023/09/22 03:59:27;;;;;;;2.57;1.33;;;15.00;84.90;;;;;;4989901;28;20937;-68
2023/09/22 04:01:54;;;;;;;3.53;1.30;;;15.10;85.00;;;;;;4991958;28;20655;-68
2023/09/22 04:04:19;;;;;;;6.90;1.67;;;15.10;84.90;;;;;;4989902;28;20192;-68
2023/09/22 04:06:46;;;;;;;4.00;1.10;;;15.10;84.70;;;;;;4988458;28;20958;-68
2023/09/22 04:09:11;;;;;;;4.97;1.40;;;15.10;84.70;;;;;;4997903;28;20184;-68
2023/09/22 04:11:37;;;;;;;5.00;1.60;;;15.20;84.40;;;;;;4996059;28;20432;-68
2023/09/22 04:14:03;;;;;;;2.23;1.13;;;15.20;84.60;;;;;;4998410;28;20189;-69
2023/09/22 04:16:29;;;;;;;4.30;1.50;;;15.30;84.90;;;;;;4990516;28;20276;-68
2023/09/22 04:18:55;;;;;;;2.23;1.30;;;15.30;84.90;;;;;;4997331;28;20439;-69
2023/09/22 04:21:22;;;;;;;1.80;1.27;;;15.40;84.70;;;;;;4998704;28;20436;-68
2023/09/22 04:23:57;;;;;;;3.40;1.40;;;15.40;84.70;;;;;;4990705;28;20439;-68
2023/09/22 04:26:29;;;;;;;4.70;1.40;;;15.40;83.70;;;;;;4992246;28;20522;-69
2023/09/22 04:28:59;;;;;;;2.73;1.50;;;15.40;83.30;;;;;;4991791;28;20971;-68
2023/09/22 04:31:26;;;;;;;2.60;1.30;;;15.40;83.30;;;;;;4993539;28;20446;-68
2023/09/22 04:33:52;;;;;;;1.87;1.67;;;15.30;83.40;;;;;;4994697;28;20414;-69
2023/09/22 04:36:24;;;;;;;3.27;1.30;;;15.40;83.80;;;;;;4994305;28;20468;-68
2023/09/22 04:38:52;;;;;;;2.70;1.40;;;15.50;84.00;;;;;;4988342;28;20455;-69
2023/09/22 04:41:19;;;;;;;3.40;1.43;;;15.50;83.80;;;;;;4994732;28;20439;-69
2023/09/22 04:43:46;;;;;;;4.70;1.40;;;15.50;84.00;;;;;;4994115;28;20434;-69
2023/09/22 04:46:11;;;;;;;2.30;1.33;;;15.50;84.00;;;;;;4988515;28;20560;-69
2023/09/22 04:48:37;;;;;;;2.17;1.23;;;15.60;84.00;;;;;;4989204;28;20559;-69
2023/09/22 04:51:04;;;;;;;5.33;1.63;;;15.60;84.00;;;;;;4992833;28;20281;-69
2023/09/22 04:53:30;;;;;;;3.93;1.37;;;15.60;84.10;;;;;;4994092;28;20490;-68
2023/09/22 04:56:06;;;;;;;3.70;1.70;;;15.50;84.10;;;;;;4983725;28;21036;-68
2023/09/22 04:58:32;;;;;;;2.90;1.43;;;15.60;84.10;;;;;;4988508;28;20557;-67
2023/09/22 05:01:01;;;;;;;2.83;1.33;;;15.60;84.00;;;;;;4986376;28;20419;-67
2023/09/22 05:03:28;;;;;;;5.03;1.73;;;15.70;83.80;;;;;;4998740;28;20427;-67
2023/09/22 05:05:53;;;;;;;2.13;1.20;;;15.70;83.70;;;;;;4982836;28;20484;-67
2023/09/22 05:08:19;;;;;;;5.03;1.40;;;15.70;83.40;;;;;;4995553;28;20425;-66
2023/09/22 05:10:48;;;;;;;2.50;1.50;;;15.70;83.30;;;;;;4989188;28;20250;-68
2023/09/22 05:13:18;;;;;;;5.07;1.47;;;15.70;83.10;;;;;;5001126;28;20557;-68
2023/09/22 05:15:45;;;;;;;2.40;1.57;;;15.70;82.80;;;;;;4982456;28;20459;-67
2023/09/22 05:18:14;;;;;;;4.10;1.40;;;15.60;83.10;;;;;;5000099;28;20432;-66
2023/09/22 05:20:41;;;;;;;4.47;1.30;;;15.60;83.10;;;;;;4988123;28;20426;-66
2023/09/22 05:23:10;;;;;;;3.07;1.53;;;15.50;83.10;;;;;;5000731;28;20412;-65
2023/09/22 05:25:40;;;;;;;3.87;1.60;;;15.50;83.10;;;;;;4995055;28;20244;-67
2023/09/22 05:28:08;;;;;;;1.77;0.90;;;15.50;83.10;;;;;;4993715;28;20428;-67
2023/09/22 05:30:40;;;;;;;3.17;1.67;;;15.50;83.30;;;;;;5003183;28;20761;-68
2023/09/22 05:33:07;;;;;;;5.80;1.93;;;15.50;83.00;;;;;;5003471;28;20997;-66
2023/09/22 05:35:37;;;;;;;2.67;1.43;;;15.30;83.10;;;;;;4993115;28;20457;-67
2023/09/22 05:38:04;;;;;;;2.70;1.53;;;15.20;83.40;;;;;;4995225;28;20500;-67
2023/09/22 05:40:32;;;;;;;2.80;1.23;;;15.20;83.30;;;;;;4998332;28;20437;-68
2023/09/22 05:42:58;;;;;;;3.57;1.30;;;15.20;83.30;;;;;;4978871;28;20850;-68
2023/09/22 05:45:24;;;;;;;3.37;1.40;;;15.10;83.30;;;;;;4986291;28;20575;-67
2023/09/22 05:47:49;;;;;;;2.20;1.07;;;15.10;83.10;;;;;;5000173;28;20191;-66
2023/09/22 05:50:16;;;;;;;2.10;1.20;;;15.10;83.00;;;;;;5002067;28;20190;-67
2023/09/22 05:52:42;;;;;;;2.80;1.23;;;15.10;82.80;;;;;;4995756;28;20435;-66
2023/09/22 05:55:08;;;;;;;2.07;1.00;;;15.10;82.80;;;;;;4996357;28;20772;-67
2023/09/22 05:57:34;;;;;;;2.40;1.23;;;15.10;82.50;;;;;;4994175;28;20178;-66
2023/09/22 06:00:00;;;;;;;2.67;1.00;;;15.10;82.10;;;;;;5008073;28;20424;-67
2023/09/22 06:02:26;;;;;;;2.67;1.33;;;15.10;82.20;;;;;;4998431;28;20187;-67
2023/09/22 06:04:55;;;;;;;2.00;1.20;;;15.20;81.90;;;;;;5001251;28;20182;-69
2023/09/22 06:07:22;;;;;;;2.93;1.03;;;15.20;82.70;;;;;;4994625;28;20441;-68
2023/09/22 06:09:48;;;;;;;6.73;1.33;;;15.20;82.80;;;;;;4998024;28;20431;-68
2023/09/22 06:12:13;;;;;;;5.30;1.40;;;15.20;83.00;;;;;;4991531;28;20433;-68
2023/09/22 06:14:39;;;;;;;3.43;1.33;;;15.20;83.00;;;;;;4997856;28;20191;-66
2023/09/22 06:17:05;;;;;;;3.30;1.40;;;15.20;82.20;;;;;;4987396;28;20194;-66
2023/09/22 06:19:31;;;;;;;1.93;1.20;;;15.20;82.50;;;;;;4990466;28;20207;-67
2023/09/22 06:21:57;;;;;;;2.03;1.30;;;15.20;82.50;;;;;;5001482;28;20202;-67
2023/09/22 06:24:23;;;;;;;1.20;1.03;;;15.30;82.70;;;;;;4996564;28;20237;-67
2023/09/22 06:26:50;;;;;;;2.37;1.50;;;15.30;82.20;;;;;;4989367;28;20921;-66
2023/09/22 06:29:17;;;;;;;3.30;1.30;;;15.30;82.20;;;;;;5004457;28;20207;-68
2023/09/22 06:31:43;;;;;;;3.57;1.23;;;15.30;81.80;;;;;;4995605;28;20422;-67
2023/09/22 06:34:09;;;;;;;1.80;1.10;;;15.30;81.70;;;;;;4993158;28;20432;-67
2023/09/22 06:36:35;;;;;;;1.80;1.00;;;15.30;81.50;;;;;;4992664;28;20465;-67
2023/09/22 06:39:07;;;;;;;2.97;1.40;;;15.30;81.40;;;;;;5000030;28;20198;-68
2023/09/22 06:41:34;;;;;;;4.20;1.13;;;15.40;81.40;;;;;;4993490;28;20511;-68
2023/09/22 06:44:00;;;;;;;2.83;1.10;;;15.40;81.20;;;;;;4999379;28;20465;-67
2023/09/22 06:46:26;;;;;;;2.03;1.10;;;15.40;81.20;;;;;;4993507;28;20552;-67
2023/09/22 06:48:51;;;;;;;4.00;1.40;;;15.40;81.40;;;;;;4996244;28;20414;-67
2023/09/22 06:51:18;;;;;;;3.43;1.40;;;15.40;81.50;;;;;;4998899;28;20722;-67
2023/09/22 06:53:44;;;;;;;2.17;1.20;;;15.50;81.40;;;;;;4992363;28;20186;-68
2023/09/22 06:56:10;;;;;;;3.60;1.40;;;15.50;81.40;;;;;;4990949;28;20510;-67
2023/09/22 06:58:37;;;;;;;2.33;1.33;;;15.50;81.50;;;;;;4991848;28;20516;-67
2023/09/22 07:01:13;;;;;;;2.43;1.20;;;15.50;81.50;;;;;;4995176;28;20454;-68
2023/09/22 07:03:40;;;;;;;2.20;1.20;;;15.60;81.40;;;;;;4987112;28;20496;-67
2023/09/22 07:06:08;;;;;;;5.27;1.80;;;15.70;80.90;;;;;;4995747;28;20525;-68
2023/09/22 07:08:34;;;;;;;4.13;1.60;;;15.80;80.80;;;;;;4994870;28;20425;-68
2023/09/22 07:11:05;;;;;;;2.13;1.20;;;15.80;80.80;;;;;;4998673;28;20423;-68
2023/09/22 07:13:31;;;;;;;4.00;1.50;;;15.90;80.60;;;;;;4995410;28;21055;-67
2023/09/22 07:15:59;;;;;;;2.50;1.40;;;16.00;80.80;;;;;;4990917;28;20480;-68
2023/09/22 07:18:26;;;;;;;2.63;1.67;;;16.00;80.90;;;;;;4996039;28;20277;-68
2023/09/22 07:20:52;;;;;;;2.00;1.23;;;16.10;80.60;;;;;;4994988;28;20441;-68
2023/09/22 07:23:19;;;;;;;2.70;1.37;;;16.20;79.30;;;;;;4995705;28;20433;-66
2023/09/22 07:25:45;;;;;;;2.37;1.10;;;16.20;79.50;;;;;;4992523;28;20481;-68
2023/09/22 07:28:11;;;;;;;4.30;1.43;;;16.20;79.30;;;;;;5002272;28;20505;-69
2023/09/22 07:30:37;;;;;;;3.43;1.43;;;16.10;79.50;;;;;;4998299;28;20518;-67
2023/09/22 07:33:03;;;;;;;2.60;1.57;;;16.10;79.60;;;;;;4993025;28;20436;-68
2023/09/22 07:35:28;;;;;;;2.70;1.27;;;16.10;79.70;;;;;;4987989;28;20592;-68
2023/09/22 07:37:54;;;;;;;5.27;1.67;;;16.20;80.00;;;;;;4998669;28;20449;-68
2023/09/22 07:40:19;;;;;;;1.67;1.03;;;16.30;80.50;;;;;;4994681;28;20190;-68
2023/09/22 07:42:45;;;;;;;2.47;1.30;;;16.30;79.70;;;;;;4994102;28;20246;-69
2023/09/22 07:45:12;;;;;;;5.80;1.60;;;16.40;79.70;;;;;;4991955;28;20272;-68
2023/09/22 07:47:38;;;;;;;5.10;2.00;;;16.50;79.90;;;;;;5000523;28;20444;-68
2023/09/22 07:50:06;;;;;;;3.93;1.50;;;16.50;80.00;;;;;;5001229;28;20841;-68
2023/09/22 07:52:32;;;;;;;2.60;1.50;;;16.60;78.70;;;;;;5001748;28;20451;-67
2023/09/22 07:54:59;;;;;;;3.43;1.40;;;16.50;78.30;;;;;;4993518;28;20454;-67
2023/09/22 07:57:25;;;;;;;3.30;1.23;;;16.30;79.20;;;;;;4992979;28;20430;-68
2023/09/22 07:59:51;;;;;;;2.70;1.23;;;16.30;79.50;;;;;;4993729;28;20440;-68
2023/09/22 08:02:17;;;;;;;3.80;1.83;;;16.20;79.60;;;;;;4992703;28;20414;-69
2023/09/22 08:04:43;;;;;;;2.37;1.40;;;16.20;80.00;;;;;;4990854;28;20186;-67
2023/09/22 08:07:09;;;;;;;3.73;2.60;;;16.30;80.20;;;;;;4996491;28;20222;-68
2023/09/22 08:09:34;;;;;;;2.27;1.40;;;16.40;80.30;;;;;;4997565;28;20420;-68
2023/09/22 08:12:01;;;;;;;2.20;1.40;;;16.50;80.20;;;;;;4996440;28;20189;-68
2023/09/22 08:14:27;;;;;;;4.13;1.83;;;16.50;80.00;;;;;;4997106;28;20186;-69
2023/09/22 08:16:53;;;;;;;3.90;2.30;;;16.50;80.00;;;;;;4994934;28;20458;-66
2023/09/22 08:19:18;;;;;;;2.83;1.60;;;16.60;79.50;;;;;;4996163;28;20229;-67
2023/09/22 08:21:46;;;;;;;3.30;1.40;;;16.60;78.30;;;;;;4998571;28;20214;-67
2023/09/22 08:24:15;;;;;;;3.20;1.57;;;16.70;78.30;;;;;;4995859;28;20558;-67
2023/09/22 08:26:42;;;;;;;2.43;1.40;;;16.80;77.70;;;;;;4980659;28;20516;-68
2023/09/22 08:29:09;;;;;;;2.00;1.40;;;16.90;77.10;;;;;;5004565;28;20483;-68
2023/09/22 08:31:35;;;;;;;2.50;1.53;;;17.00;77.30;;;;;;5003035;28;20556;-68
2023/09/22 08:34:02;;;;;;;3.00;1.50;;;17.10;77.00;;;;;;4997898;28;20466;-67
2023/09/22 08:36:28;;;;;;;5.63;1.70;;;17.10;76.50;;;;;;4982866;28;20289;-67
2023/09/22 08:38:55;;;;;;;3.53;1.63;;;17.10;76.50;;;;;;5001328;28;20445;-69
2023/09/22 08:41:23;;;;;;;2.83;1.50;;;17.00;76.40;;;;;;4988185;28;21071;-68
2023/09/22 08:43:49;;;;;;;2.27;1.40;;;16.80;77.30;;;;;;5001749;28;20431;-67
2023/09/22 08:46:16;;;;;;;2.70;1.33;;;16.80;77.60;;;;;;4987431;28;20472;-68
2023/09/22 08:48:42;;;;;;;4.80;1.47;;;16.80;77.60;;;;;;4999413;28;20212;-68
2023/09/22 08:51:09;;;;;;;3.43;1.60;;;17.00;76.80;;;;;;4987214;28;20426;-68
2023/09/22 08:53:36;;;;;;;1.70;1.03;;;17.10;76.70;;;;;;4996576;28;20190;-67
2023/09/22 08:56:04;;;;;;;6.20;1.30;;;17.10;76.50;;;;;;4984886;28;20530;-68
2023/09/22 08:58:30;;;;;;;4.80;1.67;;;17.20;76.20;;;;;;4993772;28;20416;-68
2023/09/22 09:00:55;;;;;;;1.57;1.13;;;17.20;75.70;;;;;;4995834;28;20424;-68
2023/09/22 09:03:21;;;;;;;1.87;1.13;;;17.20;75.70;;;;;;5010410;28;20430;-67
2023/09/22 09:05:49;;;;;;;4.43;1.20;;;17.20;75.70;;;;;;4993515;28;20689;-68
2023/09/22 09:08:18;;;;;;;3.27;1.40;;;17.20;75.40;;;;;;5002021;28;20233;-67
2023/09/22 09:10:46;;;;;;;1.97;1.43;;;17.10;75.80;;;;;;4993456;28;21339;-68
2023/09/22 09:13:23;;;;;;;2.40;1.40;;;17.20;76.40;;;;;;4998704;28;20430;-68
2023/09/22 09:15:54;;;;;;;2.83;1.20;;;17.30;75.90;;;;;;4989197;28;21056;-67
2023/09/22 09:18:22;;;;;;;3.97;1.10;;;17.20;75.90;;;;;;4994013;28;20422;-66
2023/09/22 09:21:12;;;;;;;4.80;1.80;;;17.20;75.80;;;;;;4999191;28;20487;-68
2023/09/22 09:23:54;;;;;;;3.33;1.30;;;17.20;76.40;;;;;;4989739;28;20466;-68
2023/09/22 09:26:26;;;;;;;3.37;1.70;;;17.20;76.70;;;;;;4985962;28;20492;-68
2023/09/22 09:28:53;;;;;;;3.13;1.20;;;17.20;76.40;;;;;;4994792;28;20426;-67
2023/09/22 09:31:19;;;;;;;2.87;1.60;;;17.20;76.10;;;;;;4989309;28;20575;-67
2023/09/22 09:33:54;;;;;;;1.57;1.13;;;17.10;76.50;;;;;;4989420;28;21018;-68
2023/09/22 09:36:19;;;;;;;2.50;1.50;;;17.10;77.30;;;;;;4979853;28;20210;-69
2023/09/22 09:38:46;;;;;;;3.00;1.20;;;17.20;77.10;;;;;;4997196;28;20473;-69
2023/09/22 09:41:11;;;;;;;2.60;1.50;;;17.10;76.80;;;;;;4993214;28;20756;-68
2023/09/22 09:43:41;;;;;;;6.30;1.63;;;17.10;77.30;;;;;;4993437;28;20429;-67
2023/09/22 09:46:08;;;;;;;5.40;1.50;;;17.10;77.70;;;;;;4983804;28;20295;-69
2023/09/22 09:48:39;;;;;;;2.13;1.20;;;17.10;77.40;;;;;;4999111;28;20797;-67
2023/09/22 09:51:11;;;;;;;2.03;1.20;;;17.30;77.10;;;;;;4998467;28;20418;-69
2023/09/22 09:53:43;;;;;;;3.63;1.23;;;17.40;76.70;;;;;;4987841;28;20440;-68
2023/09/22 09:56:13;;;;;;;3.50;1.10;;;17.40;75.70;;;;;;4980620;28;21391;-68
2023/09/22 09:58:39;;;;;;;1.90;1.20;;;17.30;76.10;;;;;;5002482;28;20476;-68
2023/09/22 10:01:06;;;;;;;3.93;1.60;;;17.40;76.40;;;;;;5000525;28;20464;-66
2023/09/22 10:03:36;;;;;;;1.93;1.10;;;17.40;76.10;;;;;;4986734;28;20429;-67
2023/09/22 10:06:03;;;;;;;2.10;1.20;;;17.40;75.90;;;;;;4982213;28;20849;-68
2023/09/22 10:08:30;;;;;;;2.43;1.20;;;17.40;76.20;;;;;;5005421;28;20426;-68
2023/09/22 10:11:02;;;;;;;1.80;1.20;;;17.40;76.10;;;;;;4993030;28;20420;-67
2023/09/22 10:13:27;;;;;;;1.87;1.00;;;17.40;75.70;;;;;;4996646;28;20422;-67
2023/09/22 10:16:01;;;;;;;2.70;1.20;;;17.50;74.90;;;;;;4990365;28;20533;-68
2023/09/22 10:18:46;;;;;;;2.70;1.50;;;17.70;74.90;;;;;;4996464;28;20189;-67
2023/09/22 10:21:30;;;;;;;1.97;1.20;;;17.80;74.00;;;;;;4995880;28;20433;-69
2023/09/22 10:24:15;;;;;;;2.40;1.33;;;17.80;73.20;;;;;;4995711;28;20510;-68
2023/09/22 10:26:55;;;;;;;1.80;0.87;;;17.60;74.00;;;;;;4991898;28;20480;-68
2023/09/22 10:29:33;;;;;;;2.07;1.13;;;17.70;73.30;;;;;;5003178;28;20426;-69
2023/09/22 10:32:18;;;;;;;1.13;0.70;;;17.70;73.30;;;;;;4996274;28;20424;-68
2023/09/22 10:34:53;;;;;;;2.57;1.10;;;17.70;72.00;;;;;;4996196;28;20459;-68
2023/09/22 10:37:20;;;;;;;2.57;1.20;;;17.90;72.30;;;;;;4981578;28;20515;-69
2023/09/22 10:40:08;;;;;;;1.77;1.10;;;18.30;71.00;;;;;;4990826;28;20625;-67
2023/09/22 10:42:43;;;;;;;2.03;0.90;;;18.70;69.10;;;;;;4990385;28;20417;-69
2023/09/22 10:45:09;;;;;;;4.10;1.40;;;19.00;67.70;;;;;;4986795;28;20447;-67
2023/09/22 10:47:43;;;;;;;1.87;1.00;;;19.20;67.20;;;;;;4991072;28;20483;-67
2023/09/22 10:50:33;;;;;;;2.30;1.10;;;19.30;66.30;;;;;;4994106;28;20508;-68
2023/09/22 10:53:03;;;;;;;1.70;1.00;;;19.00;66.10;;;;;;4986613;28;20444;-67
2023/09/22 10:55:41;;;;;;;2.17;1.33;;;19.00;66.70;;;;;;4982002;28;20466;-67
2023/09/22 10:58:10;;;;;;;1.40;0.90;;;19.00;67.00;;;;;;4987588;28;20421;-67
2023/09/22 11:00:43;;;;;;;2.17;1.10;;;19.20;66.70;;;;;;4993170;28;20435;-68
2023/09/22 11:03:09;;;;;;;1.40;1.00;;;19.20;65.40;;;;;;4994237;28;20439;-69
2023/09/22 11:05:40;;;;;;;2.07;0.93;;;19.10;65.70;;;;;;4985628;28;21011;-68
2023/09/22 11:08:18;;;;;;;2.60;1.30;;;19.00;65.30;;;;;;4999849;28;20436;-69
2023/09/22 11:10:48;;;;;;;1.97;1.10;;;18.90;65.60;;;;;;4982842;28;20791;-68
2023/09/22 11:13:15;;;;;;;2.20;0.70;;;18.80;65.40;;;;;;4988601;28;20507;-67
2023/09/22 11:15:53;;;;;;;2.30;0.87;;;18.70;66.10;;;;;;4985180;28;20475;-68
2023/09/22 11:18:26;;;;;;;2.27;1.20;;;18.70;65.60;;;;;;4989643;28;20485;-69
2023/09/22 11:20:59;;;;;;;1.77;0.90;;;18.50;65.70;;;;;;4999153;28;20427;-68
2023/09/22 11:23:26;;;;;;;1.73;0.83;;;18.60;66.00;;;;;;4995848;28;20463;-68
2023/09/22 11:26:09;;;;;;;2.33;0.83;;;18.70;65.80;;;;;;4987733;28;20480;-68
2023/09/22 11:28:39;;;;;;;3.03;1.17;;;18.70;65.10;;;;;;4995494;28;20514;-68
2023/09/22 11:31:19;;;;;;;2.13;1.50;;;18.70;65.60;;;;;;4989180;28;20416;-68
2023/09/22 11:33:46;;;;;;;2.93;0.90;;;18.80;64.80;;;;;;4994551;28;20987;-70
2023/09/22 11:36:12;;;;;;;5.30;1.10;;;18.80;64.40;;;;;;4985197;28;20476;-68
2023/09/22 11:38:40;;;;;;;1.77;0.90;;;18.70;64.70;;;;;;4997551;28;20420;-68
2023/09/22 11:41:09;;;;;;;2.00;1.20;;;18.70;65.00;;;;;;4992620;28;20443;-67
2023/09/22 11:43:41;;;;;;;4.23;0.90;;;18.70;65.30;;;;;;4990618;28;20448;-67
2023/09/22 11:46:07;;;;;;;5.13;1.10;;;18.90;65.40;;;;;;4986497;28;20485;-68
2023/09/22 11:48:50;;;;;;;3.73;0.83;;;19.20;63.90;;;;;;4997323;28;20422;-66
2023/09/22 11:51:16;;;;;;;2.40;1.17;;;19.50;63.80;;;;;;4996166;28;20473;-68
2023/09/22 11:53:41;;;;;;;1.30;0.93;;;19.40;63.20;;;;;;4997941;28;20417;-67
2023/09/22 11:56:07;;;;;;;1.40;1.00;;;19.30;63.50;;;;;;4985219;28;20212;-68
2023/09/22 11:58:32;;;;;;;2.63;0.90;;;19.40;63.20;;;;;;4991930;28;20266;-69
2023/09/22 12:00:58;;;;;;;3.30;1.30;;;19.60;62.90;;;;;;4993219;28;20184;-68
2023/09/22 12:03:24;;;;;;;2.57;1.00;;;19.80;63.40;;;;;;4995493;28;20187;-68
2023/09/22 12:05:49;;;;;;;3.73;1.20;;;19.70;63.20;;;;;;4987619;28;20221;-69
2023/09/22 12:08:15;;;;;;;4.80;1.10;;;19.50;64.20;;;;;;4992289;28;20659;-69
2023/09/22 12:10:40;;;;;;;1.47;0.97;;;19.60;63.40;;;;;;4989839;28;20907;-68
2023/09/22 12:13:06;;;;;;;3.10;1.40;;;19.70;63.80;;;;;;4992710;28;20211;-68
2023/09/22 12:15:32;;;;;;;3.27;1.10;;;19.80;63.40;;;;;;4989938;28;20203;-68
2023/09/22 12:17:58;;;;;;;2.50;1.40;;;19.50;63.10;;;;;;4995800;28;20181;-69
2023/09/22 12:20:23;;;;;;;2.40;1.10;;;19.50;63.90;;;;;;4992416;28;20217;-68
2023/09/22 12:22:49;;;;;;;2.50;1.30;;;19.80;63.80;;;;;;4992793;28;20192;-67
2023/09/22 12:25:14;;;;;;;2.67;1.30;;;20.00;63.10;;;;;;4987909;28;20285;-67
2023/09/22 12:27:40;;;;;;;3.47;1.43;;;19.90;63.20;;;;;;4992034;28;20186;-67
2023/09/22 12:30:06;;;;;;;3.23;1.37;;;19.70;63.20;;;;;;4991882;28;20192;-67
2023/09/22 12:32:32;;;;;;;2.67;1.10;;;19.60;63.90;;;;;;4989448;28;20608;-68
2023/09/22 12:34:59;;;;;;;1.93;0.90;;;19.30;64.20;;;;;;4992123;28;20548;-67
2023/09/22 12:37:25;;;;;;;1.63;1.13;;;19.30;63.90;;;;;;4991626;28;20443;-69
2023/09/22 12:39:50;;;;;;;3.77;1.40;;;19.50;63.90;;;;;;4991315;28;20802;-68
2023/09/22 12:42:16;;;;;;;5.20;1.27;;;19.90;63.80;;;;;;4993804;28;20512;-68
2023/09/22 12:44:42;;;;;;;2.60;1.20;;;20.40;62.90;;;;;;4990221;28;20274;-68
2023/09/22 12:47:08;;;;;;;3.03;1.13;;;20.60;62.00;;;;;;4993981;28;20218;-68
2023/09/22 12:49:34;;;;;;;4.40;1.87;;;20.50;62.00;;;;;;4997796;28;20722;-68